sensor_id;sensor_type;location;lat;lon;timestamp;pressure;altitude;pressure_sealevel;temperature;humidity
6445;BME280;64733;51.424;5.484;2022-11-15T00:01:29;100690.56;;;17.78;66.06
6445;BME280;64733;51.424;5.484;2022-11-15T00:03:56;100696.19;;;17.77;66.14
6445;BME280;64733;51.424;5.484;2022-11-15T00:06:24;100689.94;;;17.76;66.01
6445;BME280;64733;51.424;5.484;2022-11-15T00:08:51;100675.41;;;17.69;66.11
6445;BME280;64733;51.424;5.484;2022-11-15T00:11:17;100693.16;;;17.72;66.19
6445;BME280;64733;51.424;5.484;2022-11-15T00:13:44;100693.34;;;17.70;66.24
6445;BME280;64733;51.424;5.484;2022-11-15T00:16:11;100673.94;;;17.59;66.28
6445;BME280;64733;51.424;5.484;2022-11-15T00:18:38;100692.84;;;17.67;66.19
6445;BME280;64733;51.424;5.484;2022-11-15T00:21:06;100686.75;;;17.65;65.99
6445;BME280;64733;51.424;5.484;2022-11-15T00:23:35;100670.72;;;17.55;66.08
6445;BME280;64733;51.424;5.484;2022-11-15T00:26:03;100685.06;;;17.64;66.00
6445;BME280;64733;51.424;5.484;2022-11-15T00:28:30;100681.69;;;17.62;66.04
6445;BME280;64733;51.424;5.484;2022-11-15T00:31:00;100681.00;;;17.60;66.08
6445;BME280;64733;51.424;5.484;2022-11-15T00:33:27;100675.47;;;17.53;66.21
6445;BME280;64733;51.424;5.484;2022-11-15T00:36:14;100681.38;;;17.57;66.05
6445;BME280;64733;51.424;5.484;2022-11-15T00:38:42;100678.66;;;17.57;66.24
6445;BME280;64733;51.424;5.484;2022-11-15T00:41:08;100686.97;;;17.55;66.09
6445;BME280;64733;51.424;5.484;2022-11-15T00:43:35;100679.03;;;17.54;66.22
6445;BME280;64733;51.424;5.484;2022-11-15T00:46:02;100680.03;;;17.53;66.14
6445;BME280;64733;51.424;5.484;2022-11-15T00:48:29;100674.78;;;17.51;66.20
6445;BME280;64733;51.424;5.484;2022-11-15T00:50:56;100676.81;;;17.49;66.38
6445;BME280;64733;51.424;5.484;2022-11-15T00:53:23;100674.97;;;17.50;66.37
6445;BME280;64733;51.424;5.484;2022-11-15T00:55:52;100658.06;;;17.40;66.43
6445;BME280;64733;51.424;5.484;2022-11-15T00:58:19;100665.13;;;17.49;66.27
6445;BME280;64733;51.424;5.484;2022-11-15T01:00:45;100667.31;;;17.45;66.30
6445;BME280;64733;51.424;5.484;2022-11-15T01:03:12;100673.59;;;17.46;66.38
6445;BME280;64733;51.424;5.484;2022-11-15T01:05:40;100670.88;;;17.46;66.48
6445;BME280;64733;51.424;5.484;2022-11-15T01:08:18;100669.38;;;17.43;66.56
6445;BME280;64733;51.424;5.484;2022-11-15T01:10:44;100662.25;;;17.42;66.38
6445;BME280;64733;51.424;5.484;2022-11-15T01:13:12;100654.66;;;17.38;66.66
6445;BME280;64733;51.424;5.484;2022-11-15T01:15:40;100655.50;;;17.38;66.46
6445;BME280;64733;51.424;5.484;2022-11-15T01:18:07;100653.47;;;17.40;66.43
6445;BME280;64733;51.424;5.484;2022-11-15T01:20:34;100658.19;;;17.38;66.54
6445;BME280;64733;51.424;5.484;2022-11-15T01:23:00;100648.41;;;17.37;66.45
6445;BME280;64733;51.424;5.484;2022-11-15T01:25:27;100652.97;;;17.37;66.60
6445;BME280;64733;51.424;5.484;2022-11-15T01:27:54;100649.44;;;17.36;66.63
6445;BME280;64733;51.424;5.484;2022-11-15T01:30:22;100645.19;;;17.34;66.54
6445;BME280;64733;51.424;5.484;2022-11-15T01:32:49;100650.63;;;17.34;66.58
6445;BME280;64733;51.424;5.484;2022-11-15T01:35:15;100651.66;;;17.33;66.57
6445;BME280;64733;51.424;5.484;2022-11-15T01:37:42;100644.53;;;17.32;66.72
6445;BME280;64733;51.424;5.484;2022-11-15T01:40:10;100642.84;;;17.31;66.58
6445;BME280;64733;51.424;5.484;2022-11-15T01:42:36;100644.69;;;17.30;66.59
6445;BME280;64733;51.424;5.484;2022-11-15T01:45:04;100635.91;;;17.28;66.67
6445;BME280;64733;51.424;5.484;2022-11-15T01:47:35;100641.31;;;17.28;66.75
6445;BME280;64733;51.424;5.484;2022-11-15T01:50:04;100643.16;;;17.28;66.69
6445;BME280;64733;51.424;5.484;2022-11-15T01:52:40;100645.22;;;17.26;66.70
6445;BME280;64733;51.424;5.484;2022-11-15T01:55:12;100632.03;;;17.23;66.97
6445;BME280;64733;51.424;5.484;2022-11-15T01:57:45;100625.63;;;17.24;66.82
6445;BME280;64733;51.424;5.484;2022-11-15T02:00:14;100636.44;;;17.24;66.75
6445;BME280;64733;51.424;5.484;2022-11-15T02:02:42;100632.88;;;17.23;66.79
6445;BME280;64733;51.424;5.484;2022-11-15T02:05:09;100636.63;;;17.22;66.81
6445;BME280;64733;51.424;5.484;2022-11-15T02:07:36;100630.53;;;17.20;66.91
6445;BME280;64733;51.424;5.484;2022-11-15T02:10:07;100635.09;;;17.20;67.05
6445;BME280;64733;51.424;5.484;2022-11-15T02:12:34;100624.44;;;17.18;66.67
6445;BME280;64733;51.424;5.484;2022-11-15T02:15:01;100624.44;;;17.18;66.78
6445;BME280;64733;51.424;5.484;2022-11-15T02:17:43;100619.19;;;17.17;66.68
6445;BME280;64733;51.424;5.484;2022-11-15T02:20:43;100612.09;;;17.16;66.68
6445;BME280;64733;51.424;5.484;2022-11-15T02:23:56;100613.28;;;17.13;66.80
6445;BME280;64733;51.424;5.484;2022-11-15T02:32:44;100620.75;;;17.11;67.03
6445;BME280;64733;51.424;5.484;2022-11-15T02:35:27;100612.78;;;17.10;67.06
6445;BME280;64733;51.424;5.484;2022-11-15T02:37:57;100611.94;;;17.09;67.17
6445;BME280;64733;51.424;5.484;2022-11-15T02:43:12;100606.72;;;17.08;67.07
6445;BME280;64733;51.424;5.484;2022-11-15T02:46:05;100613.97;;;17.07;67.06
6445;BME280;64733;51.424;5.484;2022-11-15T02:49:22;100607.75;;;17.07;67.08
6445;BME280;64733;51.424;5.484;2022-11-15T02:51:52;100603.50;;;17.04;67.20
6445;BME280;64733;51.424;5.484;2022-11-15T02:54:22;100601.84;;;17.03;66.76
6445;BME280;64733;51.424;5.484;2022-11-15T02:56:49;100601.84;;;17.03;67.11
6445;BME280;64733;51.424;5.484;2022-11-15T03:02:24;100594.72;;;17.02;67.25
6445;BME280;64733;51.424;5.484;2022-11-15T03:04:58;100585.09;;;17.00;67.32
6445;BME280;64733;51.424;5.484;2022-11-15T03:07:30;100580.50;;;17.00;67.31
6445;BME280;64733;51.424;5.484;2022-11-15T03:10:02;100578.84;;;16.99;67.18
6445;BME280;64733;51.424;5.484;2022-11-15T03:12:50;100580.69;;;16.99;67.57
6445;BME280;64733;51.424;5.484;2022-11-15T03:15:21;100577.97;;;16.99;67.24
6445;BME280;64733;51.424;5.484;2022-11-15T03:17:54;100570.88;;;16.98;67.45
6445;BME280;64733;51.424;5.484;2022-11-15T03:20:25;100575.44;;;16.97;67.51
6445;BME280;64733;51.424;5.484;2022-11-15T03:22:54;100580.00;;;16.97;67.43
6445;BME280;64733;51.424;5.484;2022-11-15T03:25:24;100580.00;;;16.97;67.48
6445;BME280;64733;51.424;5.484;2022-11-15T03:27:54;100586.44;;;16.96;67.61
6445;BME280;64733;51.424;5.484;2022-11-15T03:30:22;100583.75;;;16.96;67.49
6445;BME280;64733;51.424;5.484;2022-11-15T03:32:52;100591.00;;;16.95;67.52
6445;BME280;64733;51.424;5.484;2022-11-15T03:35:42;100589.34;;;16.94;67.26
6445;BME280;64733;51.424;5.484;2022-11-15T03:38:11;100582.22;;;16.93;67.32
6445;BME280;64733;51.424;5.484;2022-11-15T03:40:42;100588.47;;;16.94;67.29
6445;BME280;64733;51.424;5.484;2022-11-15T03:43:21;100589.50;;;16.93;67.58
6445;BME280;64733;51.424;5.484;2022-11-15T03:46:03;100584.28;;;16.91;67.71
6445;BME280;64733;51.424;5.484;2022-11-15T03:48:34;100584.28;;;16.91;67.56
6445;BME280;64733;51.424;5.484;2022-11-15T03:51:04;100592.41;;;16.91;67.70
6445;BME280;64733;51.424;5.484;2022-11-15T03:53:31;100579.88;;;16.90;67.61
6445;BME280;64733;51.424;5.484;2022-11-15T03:55:58;100587.97;;;16.90;67.88
6445;BME280;64733;51.424;5.484;2022-11-15T03:58:25;100571.94;;;16.88;67.95
6445;BME280;64733;51.424;5.484;2022-11-15T04:00:51;100580.22;;;16.87;67.79
6445;BME280;64733;51.424;5.484;2022-11-15T04:03:18;100572.09;;;16.87;67.83
6445;BME280;64733;51.424;5.484;2022-11-15T04:05:45;100582.94;;;16.87;67.87
6445;BME280;64733;51.424;5.484;2022-11-15T04:08:13;100573.97;;;16.86;67.77
6445;BME280;64733;51.424;5.484;2022-11-15T04:10:40;100574.13;;;16.85;67.79
6445;BME280;64733;51.424;5.484;2022-11-15T04:13:06;100577.69;;;16.85;67.85
6445;BME280;64733;51.424;5.484;2022-11-15T04:15:33;100572.28;;;16.85;67.91
6445;BME280;64733;51.424;5.484;2022-11-15T04:18:00;100570.75;;;16.83;67.99
6445;BME280;64733;51.424;5.484;2022-11-15T04:20:29;100570.56;;;16.84;67.84
6445;BME280;64733;51.424;5.484;2022-11-15T04:23:22;100565.19;;;16.76;68.07
6445;BME280;64733;51.424;5.484;2022-11-15T04:26:10;100570.75;;;16.83;67.97
6445;BME280;64733;51.424;5.484;2022-11-15T04:28:45;100578.00;;;16.82;67.84
6445;BME280;64733;51.424;5.484;2022-11-15T04:31:25;100575.47;;;16.81;67.92
6445;BME280;64733;51.424;5.484;2022-11-15T04:33:53;100575.47;;;16.81;67.95
6445;BME280;64733;51.424;5.484;2022-11-15T04:36:20;100581.75;;;16.81;68.00
6445;BME280;64733;51.424;5.484;2022-11-15T04:39:05;100580.06;;;16.80;68.11
6445;BME280;64733;51.424;5.484;2022-11-15T04:41:32;100581.06;;;16.79;68.25
6445;BME280;64733;51.424;5.484;2022-11-15T04:43:59;100581.06;;;16.79;68.03
6445;BME280;64733;51.424;5.484;2022-11-15T04:46:26;100577.50;;;16.79;68.11
6445;BME280;64733;51.424;5.484;2022-11-15T04:48:53;100579.41;;;16.78;67.93
6445;BME280;64733;51.424;5.484;2022-11-15T04:51:20;100575.84;;;16.78;68.01
6445;BME280;64733;51.424;5.484;2022-11-15T04:53:47;100580.41;;;16.77;68.18
6445;BME280;64733;51.424;5.484;2022-11-15T04:56:15;100571.47;;;16.77;68.16
6445;BME280;64733;51.424;5.484;2022-11-15T04:58:41;100554.56;;;16.67;68.09
6445;BME280;64733;51.424;5.484;2022-11-15T05:01:09;100573.31;;;16.76;67.71
6445;BME280;64733;51.424;5.484;2022-11-15T05:03:36;100566.19;;;16.75;68.13
6445;BME280;64733;51.424;5.484;2022-11-15T05:06:20;100572.47;;;16.76;68.18
6445;BME280;64733;51.424;5.484;2022-11-15T05:08:47;100563.66;;;16.74;68.16
6445;BME280;64733;51.424;5.484;2022-11-15T05:11:15;100571.78;;;16.74;68.17
6445;BME280;64733;51.424;5.484;2022-11-15T05:13:41;100567.22;;;16.74;68.09
6445;BME280;64733;51.424;5.484;2022-11-15T05:16:08;100568.25;;;16.73;68.27
6445;BME280;64733;51.424;5.484;2022-11-15T05:18:35;100570.97;;;16.73;68.26
6445;BME280;64733;51.424;5.484;2022-11-15T05:21:03;100571.78;;;16.74;68.26
6445;BME280;64733;51.424;5.484;2022-11-15T05:23:30;100563.66;;;16.74;68.20
6445;BME280;64733;51.424;5.484;2022-11-15T05:25:58;100563.84;;;16.72;68.32
6445;BME280;64733;51.424;5.484;2022-11-15T05:28:29;100559.47;;;16.71;68.25
6445;BME280;64733;51.424;5.484;2022-11-15T05:31:11;100546.13;;;16.70;68.21
6445;BME280;64733;51.424;5.484;2022-11-15T05:33:39;100554.06;;;16.71;68.34
6445;BME280;64733;51.424;5.484;2022-11-15T05:36:15;100553.38;;;16.69;68.48
6445;BME280;64733;51.424;5.484;2022-11-15T05:38:44;100553.38;;;16.69;68.19
6445;BME280;64733;51.424;5.484;2022-11-15T05:41:12;100547.97;;;16.69;68.21
6445;BME280;64733;51.424;5.484;2022-11-15T05:43:53;100556.94;;;16.70;68.15
6445;BME280;64733;51.424;5.484;2022-11-15T05:46:20;100554.22;;;16.70;68.13
6445;BME280;64733;51.424;5.484;2022-11-15T05:48:50;100566.53;;;16.72;68.25
6445;BME280;64733;51.424;5.484;2022-11-15T05:51:22;100568.56;;;16.70;68.48
6445;BME280;64733;51.424;5.484;2022-11-15T05:53:50;100563.34;;;16.69;68.13
6445;BME280;64733;51.424;5.484;2022-11-15T05:56:18;100562.50;;;16.68;68.40
6445;BME280;64733;51.424;5.484;2022-11-15T05:58:45;100559.78;;;16.68;68.41
6445;BME280;64733;51.424;5.484;2022-11-15T06:01:13;100567.75;;;16.70;68.83
6445;BME280;64733;51.424;5.484;2022-11-15T06:03:40;100573.16;;;16.70;68.84
6445;BME280;64733;51.424;5.484;2022-11-15T06:06:07;100579.41;;;16.70;68.79
6445;BME280;64733;51.424;5.484;2022-11-15T06:08:34;100577.72;;;16.69;69.64
6445;BME280;64733;51.424;5.484;2022-11-15T06:11:04;100575.00;;;16.69;69.12
6445;BME280;64733;51.424;5.484;2022-11-15T06:13:31;100584.97;;;16.69;69.28
6445;BME280;64733;51.424;5.484;2022-11-15T06:15:58;100568.06;;;16.67;69.67
6445;BME280;64733;51.424;5.484;2022-11-15T06:18:26;100570.97;;;16.65;69.73
6445;BME280;64733;51.424;5.484;2022-11-15T06:20:53;100584.97;;;16.69;69.58
6445;BME280;64733;51.424;5.484;2022-11-15T06:23:19;100581.41;;;16.68;69.60
6445;BME280;64733;51.424;5.484;2022-11-15T06:25:46;100577.91;;;16.68;69.45
6445;BME280;64733;51.424;5.484;2022-11-15T06:28:12;100583.31;;;16.68;69.32
6445;BME280;64733;51.424;5.484;2022-11-15T06:30:39;100588.88;;;16.66;69.52
6445;BME280;64733;51.424;5.484;2022-11-15T06:33:06;100582.44;;;16.67;69.39
6445;BME280;64733;51.424;5.484;2022-11-15T06:35:43;100595.13;;;16.67;69.52
6445;BME280;64733;51.424;5.484;2022-11-15T06:38:10;100594.13;;;16.68;69.46
6445;BME280;64733;51.424;5.484;2022-11-15T06:40:38;100592.41;;;16.67;69.43
6445;BME280;64733;51.424;5.484;2022-11-15T06:43:05;100587.00;;;16.67;69.51
6445;BME280;64733;51.424;5.484;2022-11-15T06:45:33;100595.13;;;16.67;69.55
6445;BME280;64733;51.424;5.484;2022-11-15T06:47:59;100601.38;;;16.67;69.59
6445;BME280;64733;51.424;5.484;2022-11-15T06:50:26;100604.09;;;16.67;69.54
6445;BME280;64733;51.424;5.484;2022-11-15T06:52:54;100605.13;;;16.66;69.66
6445;BME280;64733;51.424;5.484;2022-11-15T06:55:21;100599.72;;;16.66;69.59
6445;BME280;64733;51.424;5.484;2022-11-15T06:57:48;100591.59;;;16.58;69.43
6445;BME280;64733;51.424;5.484;2022-11-15T07:00:19;100601.22;;;16.61;69.70
6445;BME280;64733;51.424;5.484;2022-11-15T07:02:46;100612.38;;;16.66;69.46
6445;BME280;64733;51.424;5.484;2022-11-15T07:05:24;100614.41;;;16.64;69.92
6445;BME280;64733;51.424;5.484;2022-11-15T07:07:51;100617.09;;;16.64;69.83
6445;BME280;64733;51.424;5.484;2022-11-15T07:10:21;100623.69;;;16.69;70.78
6445;BME280;64733;51.424;5.484;2022-11-15T07:12:49;100612.38;;;16.66;70.76
6445;BME280;64733;51.424;5.484;2022-11-15T07:15:17;100622.34;;;16.73;70.92
6445;BME280;64733;51.424;5.484;2022-11-15T07:17:44;100630.28;;;16.75;70.91
6445;BME280;64733;51.424;5.484;2022-11-15T07:20:11;100628.41;;;16.75;71.15
6445;BME280;64733;51.424;5.484;2022-11-15T07:22:39;100630.13;;;16.76;70.95
6445;BME280;64733;51.424;5.484;2022-11-15T07:25:10;100620.28;;;16.75;70.97
6445;BME280;64733;51.424;5.484;2022-11-15T07:27:38;100620.16;;;16.77;70.79
6445;BME280;64733;51.424;5.484;2022-11-15T07:30:06;100629.94;;;16.78;70.90
6445;BME280;64733;51.424;5.484;2022-11-15T07:32:34;100623.50;;;16.79;71.10
6445;BME280;64733;51.424;5.484;2022-11-15T07:35:00;100630.78;;;16.78;71.29
6445;BME280;64733;51.424;5.484;2022-11-15T07:37:27;100632.81;;;16.76;71.35
6445;BME280;64733;51.424;5.484;2022-11-15T07:39:54;100636.88;;;16.72;71.21
6445;BME280;64733;51.424;5.484;2022-11-15T07:42:20;100635.19;;;16.71;71.09
6445;BME280;64733;51.424;5.484;2022-11-15T07:45:10;100623.88;;;16.68;70.98
6445;BME280;64733;51.424;5.484;2022-11-15T07:47:36;100618.47;;;16.68;70.72
6445;BME280;64733;51.424;5.484;2022-11-15T07:50:03;100620.50;;;16.66;70.69
6445;BME280;64733;51.424;5.484;2022-11-15T07:52:30;100621.34;;;16.66;70.78
6445;BME280;64733;51.424;5.484;2022-11-15T07:54:57;100616.06;;;16.65;70.85
6445;BME280;64733;51.424;5.484;2022-11-15T07:57:23;100613.56;;;16.63;70.71
6445;BME280;64733;51.424;5.484;2022-11-15T07:59:50;100610.03;;;16.63;70.39
6445;BME280;64733;51.424;5.484;2022-11-15T08:02:18;100624.53;;;16.62;70.40
6445;BME280;64733;51.424;5.484;2022-11-15T08:04:45;100630.47;;;16.57;68.00
6445;BME280;64733;51.424;5.484;2022-11-15T08:07:12;100632.47;;;16.63;69.52
6445;BME280;64733;51.424;5.484;2022-11-15T08:09:39;100634.69;;;16.68;69.20
6445;BME280;64733;51.424;5.484;2022-11-15T08:12:07;100631.47;;;16.64;69.42
6445;BME280;64733;51.424;5.484;2022-11-15T08:14:34;100636.91;;;16.64;69.33
6445;BME280;64733;51.424;5.484;2022-11-15T08:17:01;100646.00;;;16.63;69.52
6445;BME280;64733;51.424;5.484;2022-11-15T08:19:29;100645.00;;;16.64;69.42
6445;BME280;64733;51.424;5.484;2022-11-15T08:21:56;100632.47;;;16.63;68.76
6445;BME280;64733;51.424;5.484;2022-11-15T08:24:23;100639.59;;;16.64;69.02
6445;BME280;64733;51.424;5.484;2022-11-15T08:26:49;100639.59;;;16.64;69.26
6445;BME280;64733;51.424;5.484;2022-11-15T08:29:16;100628.97;;;16.63;69.35
6445;BME280;64733;51.424;5.484;2022-11-15T08:31:43;100627.25;;;16.62;69.32
6445;BME280;64733;51.424;5.484;2022-11-15T08:34:10;100613.22;;;16.58;69.23
6445;BME280;64733;51.424;5.484;2022-11-15T08:36:39;100616.94;;;16.65;69.51
6445;BME280;64733;51.424;5.484;2022-11-15T08:39:05;100605.25;;;16.65;69.44
6445;BME280;64733;51.424;5.484;2022-11-15T08:41:34;100613.22;;;16.66;69.39
6445;BME280;64733;51.424;5.484;2022-11-15T08:44:02;100616.59;;;16.68;69.46
6445;BME280;64733;51.424;5.484;2022-11-15T08:46:28;100608.47;;;16.68;69.59
6445;BME280;64733;51.424;5.484;2022-11-15T08:48:55;100606.44;;;16.70;69.56
6445;BME280;64733;51.424;5.484;2022-11-15T08:51:22;100604.41;;;16.72;69.60
6445;BME280;64733;51.424;5.484;2022-11-15T08:53:50;100595.44;;;16.72;69.73
6445;BME280;64733;51.424;5.484;2022-11-15T08:56:17;100599.84;;;16.73;69.56
6445;BME280;64733;51.424;5.484;2022-11-15T08:58:44;100605.44;;;16.71;69.72
6445;BME280;64733;51.424;5.484;2022-11-15T09:01:17;100599.34;;;16.69;69.70
6445;BME280;64733;51.424;5.484;2022-11-15T09:03:51;100597.81;;;16.67;69.77
6445;BME280;64733;51.424;5.484;2022-11-15T09:06:18;100593.63;;;16.64;69.73
6445;BME280;64733;51.424;5.484;2022-11-15T09:08:45;100571.34;;;16.54;69.33
6445;BME280;64733;51.424;5.484;2022-11-15T09:11:14;100586.19;;;16.58;69.24
6445;BME280;64733;51.424;5.484;2022-11-15T09:13:41;100567.75;;;16.62;69.05
6445;BME280;64733;51.424;5.484;2022-11-15T09:16:08;100567.75;;;16.70;69.05
6445;BME280;64733;51.424;5.484;2022-11-15T09:18:45;100559.78;;;16.76;69.14
6445;BME280;64733;51.424;5.484;2022-11-15T09:21:12;100567.19;;;16.82;69.92
6445;BME280;64733;51.424;5.484;2022-11-15T09:23:39;100560.59;;;16.85;70.18
6445;BME280;64733;51.424;5.484;2022-11-15T09:26:06;100558.41;;;16.88;69.92
6445;BME280;64733;51.424;5.484;2022-11-15T09:28:36;100556.53;;;16.89;70.22
6445;BME280;64733;51.424;5.484;2022-11-15T09:31:05;100564.13;;;16.94;70.04
6445;BME280;64733;51.424;5.484;2022-11-15T09:33:32;100557.38;;;16.89;70.06
6445;BME280;64733;51.424;5.484;2022-11-15T09:36:06;100565.97;;;16.93;70.30
6445;BME280;64733;51.424;5.484;2022-11-15T09:38:34;100553.47;;;16.92;70.24
6445;BME280;64733;51.424;5.484;2022-11-15T09:45:04;100557.03;;;16.93;70.63
6445;BME280;64733;51.424;5.484;2022-11-15T09:47:58;100557.38;;;16.89;70.97
6445;BME280;64733;51.424;5.484;2022-11-15T09:50:32;100557.38;;;16.89;70.48
6445;BME280;64733;51.424;5.484;2022-11-15T09:53:26;100548.44;;;16.89;70.78
6445;BME280;64733;51.424;5.484;2022-11-15T09:55:58;100552.81;;;16.90;70.54
6445;BME280;64733;51.424;5.484;2022-11-15T09:58:38;100542.53;;;16.85;70.77
6445;BME280;64733;51.424;5.484;2022-11-15T10:01:16;100544.88;;;16.88;70.80
6445;BME280;64733;51.424;5.484;2022-11-15T10:03:44;100540.50;;;16.88;70.63
6445;BME280;64733;51.424;5.484;2022-11-15T10:06:22;100544.03;;;16.88;70.89
6445;BME280;64733;51.424;5.484;2022-11-15T10:09:01;100540.50;;;16.88;71.09
6445;BME280;64733;51.424;5.484;2022-11-15T10:11:32;100542.34;;;16.87;71.15
6445;BME280;64733;51.424;5.484;2022-11-15T10:14:10;100557.53;;;16.88;70.64
6445;BME280;64733;51.424;5.484;2022-11-15T10:17:21;100538.59;;;16.88;70.53
6445;BME280;64733;51.424;5.484;2022-11-15T10:20:14;100537.28;;;16.84;71.01
6445;BME280;64733;51.424;5.484;2022-11-15T10:23:06;100533.56;;;16.85;70.88
6445;BME280;64733;51.424;5.484;2022-11-15T10:26:04;100534.41;;;16.85;70.61
6445;BME280;64733;51.424;5.484;2022-11-15T10:28:34;100526.47;;;16.84;70.87
6445;BME280;64733;51.424;5.484;2022-11-15T10:31:01;100527.47;;;16.83;70.86
6445;BME280;64733;51.424;5.484;2022-11-15T10:33:39;100521.88;;;16.84;71.11
6445;BME280;64733;51.424;5.484;2022-11-15T10:36:20;100521.88;;;16.84;70.86
6445;BME280;64733;51.424;5.484;2022-11-15T10:38:54;100518.69;;;16.81;70.79
6445;BME280;64733;51.424;5.484;2022-11-15T10:41:29;100521.22;;;16.82;70.93
6445;BME280;64733;51.424;5.484;2022-11-15T10:44:18;100512.09;;;16.83;70.44
6445;BME280;64733;51.424;5.484;2022-11-15T11:18:24;100448.00;;;17.15;71.35
6445;BME280;64733;51.424;5.484;2022-11-15T11:20:58;100445.97;;;17.17;71.43
6445;BME280;64733;51.424;5.484;2022-11-15T11:24:02;100442.22;;;17.18;71.45
6445;BME280;64733;51.424;5.484;2022-11-15T23:44:23;99683.75;;;18.65;68.12
6445;BME280;64733;51.424;5.484;2022-11-15T23:46:50;99683.94;;;18.64;67.85
6445;BME280;64733;51.424;5.484;2022-11-15T23:49:17;99678.94;;;18.61;67.99
6445;BME280;64733;51.424;5.484;2022-11-15T23:51:44;99679.16;;;18.59;68.04
